createdAt,value
2018-11-28T00:00:00.206Z,95991.1
2018-11-28T00:01:02.637Z,95992.1
2018-11-28T00:02:05.068Z,95993
2018-11-28T00:03:07.217Z,95995.6
2018-11-28T00:04:09.644Z,95993
2018-11-28T00:05:12.086Z,96000.6
2018-11-28T00:06:14.515Z,95999.6
2018-11-28T00:07:16.954Z,95997.4
2018-11-28T00:08:19.387Z,95995.9
2018-11-28T00:09:21.552Z,95999.2
2018-11-28T00:10:23.975Z,96000.9
2018-11-28T00:11:26.135Z,95996.8
2018-11-28T00:12:28.288Z,95998.6
2018-11-28T00:13:30.715Z,95995.7
2018-11-28T00:14:33.184Z,95997.2
2018-11-28T00:15:35.619Z,95994.6
2018-11-28T00:16:38.045Z,95994.7
2018-11-28T00:17:40.483Z,95996.1
2018-11-28T00:18:42.912Z,95989.9
2018-11-28T00:19:45.354Z,95991.6
2018-11-28T00:20:47.776Z,95992
2018-11-28T00:21:49.948Z,95993.2
2018-11-28T00:22:52.389Z,95989.2
2018-11-28T00:23:54.811Z,95989.7
2018-11-28T00:24:57.242Z,95989.1
2018-11-28T00:26:00.376Z,95990.3
2018-11-28T00:27:02.812Z,95991.2
2018-11-28T00:28:05.243Z,95986.9
2018-11-28T00:29:07.406Z,95990.6
2018-11-28T00:30:09.839Z,95986.3
2018-11-28T00:31:11.996Z,95990
2018-11-28T00:32:15.594Z,95989
2018-11-28T00:33:17.211Z,95991.6
2018-11-28T00:34:19.655Z,95992.1
2018-11-28T00:35:22.104Z,95996.9
2018-11-28T00:36:24.555Z,95995.9
2018-11-28T00:37:26.986Z,95998.5
2018-11-28T00:38:29.420Z,95991.5
2018-11-28T00:39:31.864Z,95993.9
2018-11-28T00:40:34.000Z,95996.8
2018-11-28T00:41:36.147Z,95996.7
2018-11-28T00:42:38.589Z,95994.5
2018-11-28T00:43:40.446Z,95996.9
2018-11-28T00:44:42.870Z,95999.7
2018-11-28T00:45:45.297Z,96001.1
2018-11-28T00:46:47.433Z,96000
2018-11-28T00:47:49.885Z,96003
2018-11-28T00:48:52.037Z,96004.1
2018-11-28T00:49:53.933Z,96000.7
2018-11-28T00:50:56.369Z,95998.9
2018-11-28T00:51:58.515Z,95997
2018-11-28T00:53:00.686Z,96000.1
2018-11-28T00:54:03.129Z,95999.3
2018-11-28T00:55:05.303Z,96001.5
2018-11-28T00:56:07.453Z,96001.1
2018-11-28T00:57:09.624Z,96003.3
2018-11-28T00:58:12.048Z,96005.5
2018-11-28T00:59:15.099Z,96005.8
2018-11-28T01:00:17.519Z,96006.4
2018-11-28T01:01:19.949Z,96006.7
2018-11-28T01:02:22.385Z,96002.7
2018-11-28T01:03:24.831Z,96001.7
2018-11-28T01:04:27.277Z,96006.9
2018-11-28T01:05:29.713Z,96005
2018-11-28T01:06:32.147Z,96004.6
2018-11-28T01:07:34.567Z,96006.9
2018-11-28T01:08:36.998Z,96010.3
2018-11-28T01:09:38.896Z,96006.1
2018-11-28T01:10:40.784Z,96008.1
2018-11-28T01:11:43.218Z,96014
2018-11-28T01:12:45.112Z,96010.4
2018-11-28T01:13:47.551Z,96015.7
2018-11-28T01:14:49.976Z,96020.6
2018-11-28T01:15:52.395Z,96019.5
2018-11-28T01:16:54.826Z,96020.7
2018-11-28T01:17:56.975Z,96022
2018-11-28T01:18:59.420Z,96021.5
2018-11-28T01:20:01.848Z,96022.3
2018-11-28T01:21:04.276Z,96017.7
2018-11-28T01:22:06.702Z,96017.8
2018-11-28T01:23:09.145Z,96020.5
2018-11-28T01:24:11.583Z,96017.8
2018-11-28T01:25:14.026Z,96016.5
2018-11-28T01:26:16.467Z,96017.3
2018-11-28T01:27:18.927Z,96016.9
2018-11-28T01:28:21.359Z,96014.9
2018-11-28T01:29:23.789Z,96014.1
2018-11-28T01:30:25.674Z,96013.2
2018-11-28T01:31:28.092Z,96012.8
2018-11-28T01:32:30.514Z,96014.1
2018-11-28T01:33:32.931Z,96011.2
2018-11-28T01:34:35.354Z,96017.8
2018-11-28T01:35:37.785Z,96017.3
2018-11-28T01:36:39.939Z,96021.3
2018-11-28T01:37:42.366Z,96021.5
2018-11-28T01:38:44.808Z,96022.5
2018-11-28T01:39:46.964Z,96022.5
2018-11-28T01:40:48.852Z,96023.1
2018-11-28T01:41:51.293Z,96028.5
2018-11-28T01:42:53.717Z,96025.9
2018-11-28T01:43:56.140Z,96027.7
2018-11-28T01:44:58.278Z,96030.2
2018-11-28T01:46:00.705Z,96027.9
2018-11-28T01:47:03.127Z,96024.7
2018-11-28T01:48:05.280Z,96024.9
2018-11-28T01:49:07.696Z,96023.4
2018-11-28T01:50:10.136Z,96026.7
2018-11-28T01:51:12.565Z,96026.7
2018-11-28T01:52:14.728Z,96026.6
2018-11-28T01:53:16.592Z,96033.5
2018-11-28T01:54:19.057Z,96035
2018-11-28T01:55:21.482Z,96036.5
2018-11-28T01:56:23.914Z,96031.9
2018-11-28T01:57:26.343Z,96035.7
2018-11-28T01:58:28.505Z,96031.2
2018-11-28T01:59:30.926Z,96032
2018-11-28T02:00:33.088Z,96030.3
2018-11-28T02:01:35.222Z,96024
2018-11-28T02:02:37.656Z,96025.9
2018-11-28T02:03:40.096Z,96024.2
2018-11-28T02:04:41.977Z,96026.5
2018-11-28T02:05:44.414Z,96026.2
2018-11-28T02:06:46.848Z,96026.4
2018-11-28T02:07:48.979Z,96026
2018-11-28T02:08:51.420Z,96026.6
2018-11-28T02:09:53.860Z,96023.7
2018-11-28T02:10:56.294Z,96022.6
2018-11-28T02:11:58.440Z,96019.5
2018-11-28T02:13:00.871Z,96019.7
2018-11-28T02:14:03.297Z,96018.9
2018-11-28T02:15:05.457Z,96023.4
2018-11-28T02:16:07.358Z,96025
2018-11-28T02:17:09.511Z,96024.2
2018-11-28T02:18:11.704Z,96021.7
2018-11-28T02:19:14.126Z,96022.9
2018-11-28T02:20:16.552Z,96025.5
2018-11-28T02:21:18.720Z,96024.1
2018-11-28T02:22:20.594Z,96024.2
2018-11-28T02:23:23.032Z,96026.4
2018-11-28T02:24:24.914Z,96028.3
2018-11-28T02:25:27.362Z,96028.5
2018-11-28T02:26:29.546Z,96025.5
2018-11-28T02:27:31.718Z,96028.4
2018-11-28T02:28:34.156Z,96029.8
2018-11-28T02:29:36.598Z,96035
2018-11-28T02:30:39.031Z,96036.3
2018-11-28T02:31:41.461Z,96034
2018-11-28T02:32:43.901Z,96038.3
2018-11-28T02:33:46.338Z,96035.2
2018-11-28T02:34:48.218Z,96037.3
2018-11-28T02:35:50.102Z,96037
2018-11-28T02:36:52.336Z,96042
2018-11-28T02:37:54.761Z,96037.4
2018-11-28T02:38:57.186Z,96037.2
2018-11-28T02:39:59.613Z,96035.3
2018-11-28T02:41:01.788Z,96041.9
2018-11-28T02:42:04.205Z,96042.1
2018-11-28T02:43:06.352Z,96042.6
2018-11-28T02:44:08.833Z,96045.8
2018-11-28T02:45:10.985Z,96049
2018-11-28T02:46:13.415Z,96048.8
2018-11-28T02:47:15.591Z,96049.5
2018-11-28T02:48:17.738Z,96049.7
2018-11-28T02:49:19.915Z,96045.3
2018-11-28T02:50:22.346Z,96043.4
2018-11-28T02:51:24.778Z,96047.1
2018-11-28T02:52:26.914Z,96047
2018-11-28T02:53:29.341Z,96044.2
2018-11-28T02:54:31.797Z,96045.8
2018-11-28T02:55:34.245Z,96048.6
2018-11-28T02:56:36.447Z,96051.9
2018-11-28T02:57:38.050Z,96050.1
2018-11-28T02:58:40.475Z,96050
2018-11-28T02:59:42.650Z,96049.1
2018-11-28T03:00:44.805Z,96051.7
2018-11-28T03:01:46.983Z,96053
2018-11-28T03:02:49.417Z,96052.8
2018-11-28T03:03:51.027Z,96053
2018-11-28T03:04:53.200Z,96051.3
2018-11-28T03:05:55.355Z,96053.7
2018-11-28T03:06:57.786Z,96052.9
2018-11-28T03:07:59.954Z,96054.6
2018-11-28T03:09:01.546Z,96056.9
2018-11-28T03:10:03.677Z,96053.3
2018-11-28T03:11:06.095Z,96054.3
2018-11-28T03:12:08.536Z,96056.6
2018-11-28T03:13:10.968Z,96056.7
2018-11-28T03:14:13.123Z,96057.7
2018-11-28T03:15:15.553Z,96058.9
2018-11-28T03:16:17.984Z,96065.2
2018-11-28T03:17:19.845Z,96061.2
2018-11-28T03:18:21.977Z,96062
2018-11-28T03:19:24.414Z,96064.9
2018-11-28T03:20:26.836Z,96060.3
2018-11-28T03:21:29.005Z,96064.3
2018-11-28T03:22:30.606Z,96063.4
2018-11-28T03:23:32.764Z,96057.2
2018-11-28T03:24:35.188Z,96058
2018-11-28T03:25:37.347Z,96060.3
2018-11-28T03:26:39.505Z,96062.1
2018-11-28T03:27:41.667Z,96064
2018-11-28T03:28:44.094Z,96064
2018-11-28T03:29:46.285Z,96069.5
2018-11-28T03:30:48.705Z,96061.7
2018-11-28T03:31:51.128Z,96066.5
2018-11-28T03:32:53.747Z,96063.8
2018-11-28T03:33:56.185Z,96064.8
2018-11-28T03:34:58.338Z,96067.1
2018-11-28T03:36:00.767Z,96066.9
2018-11-28T03:37:03.201Z,96065.8
2018-11-28T03:38:05.633Z,96070.5
2018-11-28T03:39:07.797Z,96063.8
2018-11-28T03:40:09.959Z,96065.2
2018-11-28T03:41:12.388Z,96065.4
2018-11-28T03:42:14.810Z,96064.5
2018-11-28T03:43:16.972Z,96068
2018-11-28T03:44:19.408Z,96066.8
2018-11-28T03:45:21.533Z,96067.3
2018-11-28T03:46:24.004Z,96067.9
2018-11-28T03:47:26.142Z,96066.5
2018-11-28T03:48:28.017Z,96070.2
2018-11-28T03:49:30.179Z,96072.7
2018-11-28T03:50:32.597Z,96070.3
2018-11-28T03:51:35.014Z,96070.8
2018-11-28T03:52:36.869Z,96077
2018-11-28T03:53:38.717Z,96078.3
2018-11-28T03:54:40.876Z,96084
2018-11-28T03:55:43.302Z,96081.9
2018-11-28T03:56:45.721Z,96084.6
2018-11-28T03:57:48.177Z,96084.8
2018-11-28T03:58:50.326Z,96082.6
2018-11-28T03:59:52.490Z,96084.8
2018-11-28T04:00:54.919Z,96087.1
2018-11-28T04:01:57.337Z,96083.7
2018-11-28T04:02:59.503Z,96085.8
2018-11-28T04:04:01.920Z,96084.3
2018-11-28T04:05:04.358Z,96090.1
2018-11-28T04:06:06.783Z,96089.2
2018-11-28T04:07:09.214Z,96086.9
2018-11-28T04:08:11.637Z,96092.2
2018-11-28T04:09:13.528Z,96085
2018-11-28T04:10:15.958Z,96086.1
2018-11-28T04:11:18.396Z,96080.3
2018-11-28T04:12:20.831Z,96080.1
2018-11-28T04:13:23.271Z,96078.3
2018-11-28T04:14:25.432Z,96080.3
2018-11-28T04:15:27.568Z,96079
2018-11-28T04:16:29.985Z,96081.4
2018-11-28T04:17:32.144Z,96080.5
2018-11-28T04:18:34.568Z,96083.3
2018-11-28T04:19:36.988Z,96078.8
2018-11-28T04:20:38.860Z,96076.9
2018-11-28T04:21:41.276Z,96076.1
2018-11-28T04:22:43.712Z,96073.4
2018-11-28T04:23:45.876Z,96071.9
2018-11-28T04:24:48.296Z,96074.8
2018-11-28T04:25:50.465Z,96072.5
2018-11-28T04:26:52.793Z,96067.8
2018-11-28T04:27:55.228Z,96072.7
2018-11-28T04:28:57.658Z,96076.8
2018-11-28T04:30:00.088Z,96074.4
2018-11-28T04:31:02.508Z,96077
2018-11-28T04:32:04.923Z,96076.5
2018-11-28T04:33:06.789Z,96077.8
2018-11-28T04:34:09.214Z,96079.2
2018-11-28T04:35:11.099Z,96080.8
2018-11-28T04:36:13.270Z,96078.8
2018-11-28T04:37:15.447Z,96077.7
2018-11-28T04:38:17.622Z,96077.5
2018-11-28T04:39:19.782Z,96082.1
2018-11-28T04:40:22.206Z,96075.6
2018-11-28T04:41:24.638Z,96076.9
2018-11-28T04:42:27.065Z,96079.7
2018-11-28T04:43:29.493Z,96077.1
2018-11-28T04:44:31.928Z,96081.8
2018-11-28T04:45:34.359Z,96081.3
2018-11-28T04:46:37.008Z,96080.7
2018-11-28T04:47:39.244Z,96086
2018-11-28T04:48:41.728Z,96083.3
2018-11-28T04:49:43.898Z,96085.1
2018-11-28T04:50:46.048Z,96086.9
2018-11-28T04:51:48.479Z,96085.4
2018-11-28T04:52:50.938Z,96086.7
2018-11-28T04:53:52.817Z,96081.3
2018-11-28T04:54:55.261Z,96084.3
2018-11-28T04:55:57.688Z,96087.8
2018-11-28T04:56:59.835Z,96082.8
2018-11-28T04:58:02.009Z,96085.3
2018-11-28T04:59:04.457Z,96087.7
2018-11-28T05:00:06.624Z,96086.7
2018-11-28T05:01:09.055Z,96090.2
2018-11-28T05:02:10.660Z,96092.5
2018-11-28T05:03:13.117Z,96089.6
2018-11-28T05:04:15.273Z,96089.6
2018-11-28T05:05:17.717Z,96086.1
2018-11-28T05:06:20.145Z,96084.1
2018-11-28T05:07:22.309Z,96084.9
2018-11-28T05:08:24.442Z,96084.3
2018-11-28T05:09:26.874Z,96085.8
2018-11-28T05:10:29.099Z,96087.1
2018-11-28T05:11:31.548Z,96085.2
2018-11-28T05:12:33.677Z,96086.5
2018-11-28T05:13:36.104Z,96084.6
2018-11-28T05:14:38.547Z,96088.1
2018-11-28T05:15:40.970Z,96081.3
2018-11-28T05:16:43.402Z,96086.4
2018-11-28T05:17:45.852Z,96083.1
2018-11-28T05:18:48.273Z,96083.7
2018-11-28T05:19:50.739Z,96083.3
2018-11-28T05:20:52.898Z,96083.4
2018-11-28T05:21:55.332Z,96086.3
2018-11-28T05:22:57.771Z,96087.3
2018-11-28T05:23:59.897Z,96092.1
2018-11-28T05:25:02.049Z,96093.1
2018-11-28T05:26:04.199Z,96091.8
2018-11-28T05:27:06.637Z,96091.1
2018-11-28T05:28:09.051Z,96089.7
2018-11-28T05:29:11.478Z,96090
2018-11-28T05:30:13.680Z,96091.4
2018-11-28T05:31:16.121Z,96092.1
2018-11-28T05:32:18.277Z,96090
2018-11-28T05:33:20.705Z,96090.4
2018-11-28T05:34:22.867Z,96097.1
2018-11-28T05:35:25.304Z,96097.4
2018-11-28T05:36:27.243Z,96097.7
2018-11-28T05:37:28.868Z,96092.3
2018-11-28T05:38:31.010Z,96094.5
2018-11-28T05:39:33.149Z,96095.3
2018-11-28T05:40:35.597Z,96095.7
2018-11-28T05:41:37.515Z,96103
2018-11-28T05:42:39.691Z,96105.6
2018-11-28T05:43:42.126Z,96109
2018-11-28T05:44:44.289Z,96115.6
2018-11-28T05:45:46.730Z,96108.9
2018-11-28T05:46:49.176Z,96111.5
2018-11-28T05:47:50.780Z,96110.3
2018-11-28T05:48:53.204Z,96108.2
2018-11-28T05:49:55.648Z,96110.7
2018-11-28T05:50:58.105Z,96106.1
2018-11-28T05:52:00.257Z,96108.4
2018-11-28T05:53:02.678Z,96112.7
2018-11-28T05:54:05.110Z,96108.6
2018-11-28T05:55:07.536Z,96112.7
2018-11-28T05:56:09.678Z,96111.7
2018-11-28T05:57:12.106Z,96111.3
2018-11-28T05:58:14.536Z,96115.8
2018-11-28T05:59:16.794Z,96111.5
2018-11-28T06:00:19.280Z,96113.6
2018-11-28T06:01:21.456Z,96112.5
2018-11-28T06:02:23.876Z,96113.5
2018-11-28T06:03:26.330Z,96110.7
2018-11-28T06:04:28.227Z,96115.7
2018-11-28T06:05:30.659Z,96115
2018-11-28T06:06:33.105Z,96109.9
2018-11-28T06:07:35.548Z,96116.8
2018-11-28T06:08:37.707Z,96116.3
2018-11-28T06:09:40.147Z,96115
2018-11-28T06:10:42.578Z,96117.5
2018-11-28T06:11:45.003Z,96117.8
2018-11-28T06:12:47.451Z,96115.6
2018-11-28T06:13:49.435Z,96115.4
2018-11-28T06:14:51.614Z,96117.6
2018-11-28T06:15:54.051Z,96122.4
2018-11-28T06:16:56.494Z,96119.4
2018-11-28T06:17:58.628Z,96121.8
2018-11-28T06:19:00.766Z,96124.8
2018-11-28T06:20:02.936Z,96125.1
2018-11-28T06:21:05.358Z,96122.2
2018-11-28T06:22:07.784Z,96126.1
2018-11-28T06:23:10.225Z,96122.4
2018-11-28T06:24:12.661Z,96125.9
2018-11-28T06:26:20.088Z,96123.8
2018-11-28T06:27:22.244Z,96116.6
2018-11-28T06:28:24.677Z,96125.6
2018-11-28T06:29:27.106Z,96125.8
2018-11-28T06:30:29.556Z,96126.9
2018-11-28T06:31:32.001Z,96127.7
2018-11-28T06:32:34.438Z,96132
2018-11-28T06:33:36.866Z,96132.4
2018-11-28T06:34:39.299Z,96131.1
2018-11-28T06:35:41.474Z,96137
2018-11-28T06:36:43.920Z,96135.9
2018-11-28T06:37:46.085Z,96132.9
2018-11-28T06:38:47.984Z,96133.3
2018-11-28T06:39:50.147Z,96133.5
2018-11-28T06:40:51.777Z,96130.6
2018-11-28T06:41:53.952Z,96133
2018-11-28T06:42:56.090Z,96132.4
2018-11-28T06:43:58.512Z,96139.3
2018-11-28T06:45:00.932Z,96138
2018-11-28T06:46:03.362Z,96143.4
2018-11-28T06:47:05.807Z,96141
2018-11-28T06:48:07.990Z,96142.1
2018-11-28T06:49:10.143Z,96148.5
2018-11-28T06:50:12.572Z,96148.6
2018-11-28T06:51:15.007Z,96150.9
2018-11-28T06:52:17.178Z,96152
2018-11-28T06:53:19.347Z,96157.6
2018-11-28T06:54:21.509Z,96158
2018-11-28T06:55:23.666Z,96155.8
2018-11-28T06:56:25.796Z,96160.4
2018-11-28T06:57:28.227Z,96163.3
2018-11-28T06:58:30.149Z,96167.5
2018-11-28T06:59:32.044Z,96166.5
2018-11-28T07:00:34.236Z,96169.9
2018-11-28T07:01:36.132Z,96174.9
2018-11-28T07:02:38.278Z,96178.5
2018-11-28T07:03:40.147Z,96175.7
2018-11-28T07:04:42.590Z,96173.5
2018-11-28T07:05:44.445Z,96174.4
2018-11-28T07:06:46.302Z,96174.6
2018-11-28T07:07:48.460Z,96176.9
2018-11-28T07:08:50.887Z,96178.3
2018-11-28T07:09:53.069Z,96179.2
2018-11-28T07:10:55.498Z,96174.3
2018-11-28T07:11:57.928Z,96178.6
2018-11-28T07:12:59.799Z,96177.4
2018-11-28T07:14:01.934Z,96175.9
2018-11-28T07:15:04.358Z,96178.9
2018-11-28T07:16:06.826Z,96179
2018-11-28T07:17:08.996Z,96177.3
2018-11-28T07:18:11.428Z,96177.8
2018-11-28T07:19:13.287Z,96175.3
2018-11-28T07:20:15.499Z,96177
2018-11-28T07:21:17.639Z,96180.4
2018-11-28T07:22:19.816Z,96183.3
2018-11-28T07:23:21.708Z,96183.3
2018-11-28T07:24:24.135Z,96184.5
2018-11-28T07:25:26.037Z,96186.2
2018-11-28T07:26:28.196Z,96188.8
2018-11-28T07:27:30.614Z,96186.1
2018-11-28T07:28:33.053Z,96187.4
2018-11-28T07:29:35.485Z,96189.3
2018-11-28T07:30:39.320Z,96183.7
2018-11-28T07:31:40.940Z,96191.4
2018-11-28T07:32:43.091Z,96188.4
2018-11-28T07:33:45.239Z,96184.6
2018-11-28T07:34:47.679Z,96185.3
2018-11-28T07:35:49.828Z,96183.5
2018-11-28T07:36:51.969Z,96179.2
2018-11-28T07:37:54.106Z,96185.6
2018-11-28T07:38:56.242Z,96183.3
2018-11-28T07:39:58.670Z,96187.1
2018-11-28T07:41:01.106Z,96184.7
2018-11-28T07:42:03.016Z,96185.6
2018-11-28T07:43:04.919Z,96184.9
2018-11-28T07:44:07.096Z,96187.6
2018-11-28T07:45:09.238Z,96189.3
2018-11-28T07:46:11.674Z,96186
2018-11-28T07:47:13.852Z,96186.8
2018-11-28T07:48:16.288Z,96184.3
2018-11-28T07:49:18.451Z,96185.3
2018-11-28T07:50:20.619Z,96188.3
2018-11-28T07:51:22.768Z,96191.1
2018-11-28T07:52:25.200Z,96193.4
2018-11-28T07:53:27.652Z,96192.5
2018-11-28T07:54:29.798Z,96191.3
2018-11-28T07:55:32.228Z,96190.3
2018-11-28T07:56:34.654Z,96188.9
2018-11-28T07:57:36.543Z,96191.5
2018-11-28T07:58:38.978Z,96190.6
2018-11-28T07:59:41.457Z,96186.3
2018-11-28T08:00:43.679Z,96190.5
2018-11-28T08:01:46.111Z,96193.9
2018-11-28T08:02:48.536Z,96193.1
2018-11-28T08:03:51.291Z,96200
2018-11-28T08:04:53.840Z,96196.5
2018-11-28T08:05:56.273Z,96203
2018-11-28T08:06:58.422Z,96205.9
2018-11-28T08:08:00.869Z,96204.6
2018-11-28T08:09:03.287Z,96203.2
2018-11-28T08:10:05.885Z,96208.8
2018-11-28T08:11:08.346Z,96211.3
2018-11-28T08:12:10.894Z,96207.2
2018-11-28T08:13:13.058Z,96208.4
2018-11-28T08:14:15.492Z,96204.5
2018-11-28T08:15:17.924Z,96207.5
2018-11-28T08:16:20.365Z,96209.6
2018-11-28T08:17:22.805Z,96210.6
2018-11-28T08:18:24.709Z,96209.5
2018-11-28T08:19:27.133Z,96210.5
2018-11-28T08:20:29.558Z,96205.1
2018-11-28T08:21:32.005Z,96208.8
2018-11-28T08:22:34.477Z,96210.2
2018-11-28T08:23:38.219Z,96206.4
2018-11-28T08:24:41.603Z,96209.2
2018-11-28T08:25:45.570Z,96208.6
2018-11-28T08:26:47.774Z,96210.5
2018-11-28T08:27:49.915Z,96211.2
2018-11-28T08:28:52.061Z,96204.8
2018-11-28T08:29:54.521Z,96210.8
2018-11-28T08:30:56.950Z,96204.3
2018-11-28T08:31:59.106Z,96205.6
2018-11-28T08:33:01.559Z,96203.3
2018-11-28T08:34:03.759Z,96206.9
2018-11-28T08:35:05.925Z,96205.1
2018-11-28T08:36:08.348Z,96208.8
2018-11-28T08:37:10.787Z,96212.3
2018-11-28T08:38:13.230Z,96202.5
2018-11-28T08:39:15.657Z,96205.5
2018-11-28T08:40:18.079Z,96207.9
2018-11-28T08:41:20.518Z,96208.7
2018-11-28T08:42:22.959Z,96210.3
2018-11-28T08:43:25.407Z,96209.8
2018-11-28T08:44:29.010Z,96211.3
2018-11-28T08:45:31.483Z,96212.6
2018-11-28T08:46:33.902Z,96212.4
2018-11-28T08:47:36.060Z,96209.9
2018-11-28T08:48:38.230Z,96214.8
2018-11-28T08:49:40.684Z,96213.1
2018-11-28T08:50:42.551Z,96218.3
2018-11-28T08:51:45.004Z,96216.6
2018-11-28T08:52:47.154Z,96217.4
2018-11-28T08:53:49.337Z,96213.8
2018-11-28T08:54:51.797Z,96214.8
2018-11-28T08:55:53.950Z,96217.5
2018-11-28T08:56:56.120Z,96220.8
2018-11-28T08:57:58.556Z,96225.8
2018-11-28T08:59:00.712Z,96229.4
2018-11-28T09:00:02.871Z,96225
2018-11-28T09:01:05.310Z,96227.1
2018-11-28T09:02:07.216Z,96225.6
2018-11-28T09:03:09.661Z,96227.7
2018-11-28T09:04:11.538Z,96223.1
2018-11-28T09:05:13.689Z,96216.8
2018-11-28T09:06:15.608Z,96222.3
2018-11-28T09:07:18.054Z,96221.8
2018-11-28T09:08:20.478Z,96223.1
2018-11-28T09:09:22.650Z,96218.3
2018-11-28T09:10:25.087Z,96221.4
2018-11-28T09:11:27.529Z,96219.4
2018-11-28T09:12:29.960Z,96217.6
2018-11-28T09:13:32.389Z,96222.9
2018-11-28T09:14:34.833Z,96224.3
2018-11-28T09:15:36.982Z,96229.8
2018-11-28T09:16:39.407Z,96229
2018-11-28T09:17:41.585Z,96226
2018-11-28T09:18:44.031Z,96229.4
2018-11-28T09:19:46.465Z,96232.2
2018-11-28T09:20:48.901Z,96230.7
2018-11-28T09:21:51.048Z,96236.1
2018-11-28T09:22:53.220Z,96236.8
2018-11-28T09:23:55.507Z,96236.9
2018-11-28T09:24:57.673Z,96237.4
2018-11-28T09:26:00.088Z,96237.4
2018-11-28T09:27:01.968Z,96238.7
2018-11-28T09:28:05.757Z,96237.4
2018-11-28T09:29:08.188Z,96239.7
2018-11-28T09:30:10.635Z,96241.8
2018-11-28T09:31:13.083Z,96241.6
2018-11-28T09:32:15.551Z,96245.3
2018-11-28T09:33:17.984Z,96245.4
2018-11-28T09:34:20.410Z,96238.7
2018-11-28T09:35:22.855Z,96242
2018-11-28T09:36:25.277Z,96242
2018-11-28T09:37:27.151Z,96246.5
2018-11-28T09:38:29.608Z,96244.3
2018-11-28T09:39:32.051Z,96242.1
2018-11-28T09:40:34.482Z,96245.5
2018-11-28T09:41:36.906Z,96241.2
2018-11-28T09:42:39.058Z,96241.7
2018-11-28T09:43:41.489Z,96243.1
2018-11-28T09:44:43.634Z,96243.9
2018-11-28T09:45:46.047Z,96247.5
2018-11-28T09:46:48.478Z,96246.8
2018-11-28T09:47:50.628Z,96249.1
2018-11-28T09:48:53.066Z,96252.7
2018-11-28T09:49:55.481Z,96249.8
2018-11-28T09:50:57.915Z,96246
2018-11-28T09:52:00.387Z,96252
2018-11-28T09:53:02.809Z,96245.7
2018-11-28T09:54:05.237Z,96247.7
2018-11-28T09:55:07.748Z,96250.5
2018-11-28T09:56:10.176Z,96243.8
2018-11-28T09:57:12.324Z,96241.7
2018-11-28T09:58:14.743Z,96243.8
2018-11-28T09:59:17.160Z,96239.5
2018-11-28T10:00:19.584Z,96243
2018-11-28T10:01:22.016Z,96240.3
2018-11-28T10:02:24.456Z,96244.4
2018-11-28T10:03:26.615Z,96240.1
2018-11-28T10:04:29.030Z,96244.5
2018-11-28T10:05:31.458Z,96248.3
2018-11-28T10:06:33.621Z,96246.1
2018-11-28T10:07:35.766Z,96246.1
2018-11-28T10:08:38.202Z,96239.2
2018-11-28T10:09:40.626Z,96239.1
2018-11-28T10:10:43.047Z,96238.5
2018-11-28T10:11:45.203Z,96241.9
2018-11-28T10:12:47.350Z,96239.7
2018-11-28T10:13:49.780Z,96239.1
2018-11-28T10:14:52.193Z,96243.6
2018-11-28T10:15:54.613Z,96242
2018-11-28T10:16:58.619Z,96242.3
2018-11-28T10:18:00.782Z,96242.3
2018-11-28T10:19:03.206Z,96240.5
2018-11-28T10:20:05.633Z,96241.1
2018-11-28T10:21:07.801Z,96236.9
2018-11-28T10:22:09.679Z,96240.5
2018-11-28T10:23:12.120Z,96240.3
2018-11-28T10:24:14.544Z,96237
2018-11-28T10:25:16.971Z,96236
2018-11-28T10:26:19.396Z,96236.8
2018-11-28T10:27:21.831Z,96236.1
2018-11-28T10:28:24.250Z,96235.5
2018-11-28T10:29:26.689Z,96229.8
2018-11-28T10:30:30.626Z,96232.1
2018-11-28T10:31:33.069Z,96230.9
2018-11-28T10:32:35.225Z,96231.5
2018-11-28T10:33:37.673Z,96231.8
2018-11-28T10:34:40.111Z,96230.6
2018-11-28T10:35:42.535Z,96227.3
2018-11-28T10:36:44.951Z,96226.8
2018-11-28T10:37:47.477Z,96222.7
2018-11-28T10:38:49.639Z,96222.2
2018-11-28T10:39:51.788Z,96222.8
2018-11-28T10:40:54.215Z,96220.5
2018-11-28T10:41:56.378Z,96219.2
2018-11-28T10:42:58.255Z,96219.8
2018-11-28T10:44:00.130Z,96214.8
2018-11-28T10:45:02.542Z,96214
2018-11-28T10:46:04.964Z,96215.9
2018-11-28T10:47:07.137Z,96211.8
2018-11-28T10:48:09.293Z,96215.5
2018-11-28T10:49:11.461Z,96217.3
2018-11-28T10:50:13.899Z,96210.9
2018-11-28T10:51:16.321Z,96211.8
2018-11-28T10:52:18.743Z,96212.4
2018-11-28T10:53:20.898Z,96214.4
2018-11-28T10:54:23.062Z,96217.7
2018-11-28T10:55:25.212Z,96219.6
2018-11-28T10:56:27.646Z,96221.9
2018-11-28T10:57:29.818Z,96222.4
2018-11-28T10:58:32.071Z,96224.6
2018-11-28T10:59:34.502Z,96224.9
2018-11-28T11:00:36.932Z,96221.2
2018-11-28T11:01:39.079Z,96222
2018-11-28T11:02:41.232Z,96224.5
2018-11-28T11:03:42.854Z,96223.2
2018-11-28T11:04:46.539Z,96211.5
2018-11-28T11:05:48.966Z,96219.3
2018-11-28T11:06:51.401Z,96213.6
2018-11-28T11:07:53.840Z,96222.6
2018-11-28T11:08:55.997Z,96221.1
2018-11-28T11:09:58.442Z,96223.3
2018-11-28T11:11:00.881Z,96220.3
2018-11-28T11:12:02.232Z,96225.3
2018-11-28T11:13:04.392Z,96223.4
2018-11-28T11:14:06.820Z,96226.1
2018-11-28T11:15:08.988Z,96224.2
2018-11-28T11:16:11.157Z,96226.9
2018-11-28T11:17:13.293Z,96225.8
2018-11-28T11:18:15.754Z,96228.9
2018-11-28T11:19:18.246Z,96231.4
2018-11-28T11:20:20.414Z,96227.7
2018-11-28T11:21:22.837Z,96234
2018-11-28T11:22:25.271Z,96230.3
2018-11-28T11:23:27.142Z,96228.6
2018-11-28T11:24:29.582Z,96229.6
2018-11-28T11:25:32.040Z,96227.4
2018-11-28T11:26:34.474Z,96225.1
2018-11-28T11:27:36.910Z,96221.5
2018-11-28T11:28:39.349Z,96221.5
2018-11-28T11:29:42.060Z,96217.1
2018-11-28T11:30:44.558Z,96216.8
2018-11-28T11:31:47.036Z,96214.5
2018-11-28T11:32:49.536Z,96210.9
2018-11-28T11:33:51.979Z,96204.7
2018-11-28T11:34:54.150Z,96205.1
2018-11-28T11:35:56.319Z,96199.9
2018-11-28T11:36:58.781Z,96203.6
2018-11-28T11:38:01.214Z,96197.8
2018-11-28T11:39:03.641Z,96202.8
2018-11-28T11:40:05.498Z,96198
2018-11-28T11:41:07.658Z,96203.1
2018-11-28T11:42:10.105Z,96204
2018-11-28T11:43:12.550Z,96206.9
2018-11-28T11:44:15.002Z,96205.2
2018-11-28T11:45:17.435Z,96203.1
2018-11-28T11:46:19.044Z,96209.8
2018-11-28T11:47:21.485Z,96206.8
2018-11-28T11:48:23.910Z,96208.3
2018-11-28T11:49:26.345Z,96208.2
2018-11-28T11:50:28.780Z,96210.6
2018-11-28T11:51:31.220Z,96213.7
2018-11-28T11:52:33.758Z,96210.9
2018-11-28T11:53:36.188Z,96211
2018-11-28T11:54:38.336Z,96214.3
2018-11-28T11:55:40.536Z,96217.6
2018-11-28T11:56:43.020Z,96215.5
2018-11-28T11:57:45.178Z,96216.1
2018-11-28T11:58:47.658Z,96213.3
2018-11-28T11:59:50.088Z,96212.3
2018-11-28T12:00:52.242Z,96210.1
2018-11-28T12:01:56.377Z,96206.9
2018-11-28T12:02:58.802Z,96210.4
2018-11-28T12:04:00.984Z,96206.9
2018-11-28T12:05:02.892Z,96207.2
2018-11-28T12:06:05.048Z,96201.9
2018-11-28T12:07:07.202Z,96203.4
2018-11-28T12:08:09.409Z,96203.8
2018-11-28T12:09:11.582Z,96201.4
2018-11-28T12:10:14.006Z,96200.8
2018-11-28T12:11:16.167Z,96195.4
2018-11-28T12:12:18.604Z,96200.8
2018-11-28T12:13:21.041Z,96194.6
2018-11-28T12:14:23.217Z,96195.6
2018-11-28T12:15:25.646Z,96193.3
2018-11-28T12:16:27.797Z,96196.2
2018-11-28T12:17:30.220Z,96187.1
2018-11-28T12:18:32.674Z,96187.7
2018-11-28T12:19:35.256Z,96187.3
2018-11-28T12:20:37.675Z,96192.6
2018-11-28T12:21:39.839Z,96187.3
2018-11-28T12:22:41.999Z,96192
2018-11-28T12:23:44.139Z,96186.8
2018-11-28T12:24:46.987Z,96186.6
2018-11-28T12:25:49.115Z,96185.8
2018-11-28T12:26:51.279Z,96184.8
2018-11-28T12:27:53.727Z,96188.3
2018-11-28T12:28:56.158Z,96187.6
2018-11-28T12:29:58.614Z,96183.9
2018-11-28T12:31:00.748Z,96188.5
2018-11-28T12:32:03.170Z,96185.3
2018-11-28T12:33:05.337Z,96186.2
2018-11-28T12:34:07.771Z,96183.5
2018-11-28T12:35:09.931Z,96183.9
2018-11-28T12:36:12.350Z,96181.2
2018-11-28T12:37:14.498Z,96180.1
2018-11-28T12:38:16.670Z,96181.5
2018-11-28T12:40:22.286Z,96183.6